aviador You're here:

SAZM Decoded Metar

MAR DEL PLATA in ARGENTINA
Report Time2017-11-24 18:00:00
UTC Time2017-11-24 18:29:03
Flight Rules vfr VFR
Wind200° at 09 kt
W.Decomp.*RWY 13: 2.2 kt HW 8.7 kt RCW
W.Rank200° ranks 4
Current wind is below 200° avg. (9.0)
Visibility9999 m
Phenomena:N/A
Clouds:Scattered 042 Hf
Expected CloudBase > 4,400 ft AGL from Temp-Dew spread
CeilingNone
Temp16°C (ISA +1)
Dew Point05°C (48% RH)
AAT11.6°C
QNH1016 hPa
Density Alt223 ft
Elevation69 ft
Report Wrong Elevation
Raw Report
METAR SAZM 241800Z 20009KT 180V250 9999 SCT042 16/05 Q1016=

Extra information for SAZM:More info

Metar Taf Metar & Taf Last 4 Metars F.Rules Stats Wind Profile Meteogram Temp Stats Airport Information Weather charts Add Link Nearby VenuesMetar ALERT Operation Metar Decoded Social comments